createdAt,value
2019-03-06T00:02:21.270Z,101122.64
2019-03-06T00:05:27.611Z,101123.77
2019-03-06T00:08:35.288Z,101139.59
2019-03-06T00:11:41.538Z,101130.67
2019-03-06T00:14:48.060Z,101120.33
2019-03-06T00:17:54.404Z,101120.72
2019-03-06T00:21:01.123Z,101115.14
2019-03-06T00:24:07.737Z,101114.82
2019-03-06T00:27:14.352Z,101119.63
2019-03-06T00:30:22.191Z,101124.56
2019-03-06T00:33:28.853Z,101130.77
2019-03-06T00:36:35.921Z,101133.22
2019-03-06T00:39:50.165Z,101138.73
2019-03-06T00:42:56.676Z,101134.37
2019-03-06T00:46:03.085Z,101144.91
2019-03-06T00:49:09.628Z,101144.91
2019-03-06T00:52:16.170Z,101143.94
2019-03-06T00:55:22.560Z,101159.36
2019-03-06T00:58:29.044Z,101157.04
2019-03-06T01:01:35.608Z,101155.63
2019-03-06T01:04:42.226Z,101146.52
2019-03-06T01:07:48.612Z,101162.91
2019-03-06T01:10:55.036Z,101165.13
2019-03-06T01:14:01.507Z,101178.75
2019-03-06T01:17:08.084Z,101171.44
2019-03-06T01:20:14.599Z,101182.11
2019-03-06T01:23:21.003Z,101180.23
2019-03-06T01:26:27.475Z,101187.42
2019-03-06T01:29:34.042Z,101185.52
2019-03-06T01:32:40.492Z,101192.16
2019-03-06T01:35:56.120Z,101191.45
2019-03-06T01:39:19.910Z,101200.94
2019-03-06T01:42:52.087Z,101204.80
2019-03-06T01:45:58.690Z,101218.58
2019-03-06T01:49:05.112Z,101216.70
2019-03-06T01:52:11.472Z,101210.08
2019-03-06T01:55:18.404Z,101204.57
2019-03-06T01:58:24.891Z,101207.84
2019-03-06T02:01:31.434Z,101212.03
2019-03-06T02:04:38.007Z,101203.52
2019-03-06T02:07:46.022Z,101217.65
2019-03-06T02:10:52.454Z,101218.08
2019-03-06T02:13:59.272Z,101220.54
2019-03-06T02:17:07.058Z,101220.54
2019-03-06T02:20:15.592Z,101222.22
2019-03-06T02:23:22.012Z,101223.90
2019-03-06T02:26:28.608Z,101230.00
2019-03-06T02:29:34.968Z,101230.97
2019-03-06T02:32:42.284Z,101243.08
2019-03-06T02:35:49.050Z,101245.58
2019-03-06T02:38:55.442Z,101237.66
2019-03-06T02:42:01.699Z,101226.36
2019-03-06T02:45:10.152Z,101219.72
2019-03-06T02:48:16.804Z,101222.73
2019-03-06T02:51:23.280Z,101227.14
2019-03-06T02:54:29.806Z,101232.06
2019-03-06T02:57:37.454Z,101234.88
2019-03-06T03:01:07.785Z,101249.29
2019-03-06T03:04:30.957Z,101251.20
2019-03-06T03:07:37.645Z,101237.45
2019-03-06T03:10:44.100Z,101129.06
2019-03-06T03:13:50.829Z,101247.30
2019-03-06T03:16:57.125Z,101239.72
2019-03-06T03:20:04.166Z,101238.23
2019-03-06T03:23:11.173Z,101239.59
2019-03-06T03:26:17.577Z,101237.48
2019-03-06T03:29:24.092Z,101242.44
2019-03-06T03:32:31.746Z,101244.67
2019-03-06T03:35:38.393Z,101240.17
2019-03-06T03:38:44.778Z,101234.89
2019-03-06T03:41:51.209Z,101249.44
2019-03-06T03:44:57.673Z,101246.78
2019-03-06T03:48:04.413Z,101249.08
2019-03-06T03:51:11.068Z,101251.61
2019-03-06T03:54:17.856Z,101254.62
2019-03-06T03:57:25.560Z,101247.07
2019-03-06T04:00:32.354Z,101254.84
2019-03-06T04:03:38.619Z,101254.84
2019-03-06T04:06:45.727Z,101251.23
2019-03-06T04:09:52.993Z,101257.98
2019-03-06T04:12:59.696Z,101254.47
2019-03-06T04:16:06.890Z,101257.50
2019-03-06T04:19:14.762Z,101262.33
2019-03-06T04:22:24.013Z,101265.27
2019-03-06T04:25:30.632Z,101269.44
2019-03-06T04:28:37.442Z,101257.88
2019-03-06T04:31:44.334Z,101258.08
2019-03-06T04:34:51.232Z,101263.38
2019-03-06T04:37:57.654Z,101258.09
2019-03-06T04:41:04.002Z,101263.02
2019-03-06T04:44:10.994Z,101266.80
2019-03-06T04:47:18.969Z,101258.27
2019-03-06T04:50:25.933Z,101250.11
2019-03-06T04:53:32.611Z,101252.77
2019-03-06T04:56:39.000Z,101255.71
2019-03-06T04:59:45.525Z,101251.73
2019-03-06T05:02:52.361Z,101248.41
2019-03-06T05:05:58.684Z,101250.87
2019-03-06T05:09:07.142Z,101267.53
2019-03-06T05:12:13.997Z,101270.19
2019-03-06T05:15:20.522Z,101258.08
2019-03-06T05:18:45.821Z,101260.72
2019-03-06T05:21:53.470Z,101265.37
2019-03-06T05:25:00.412Z,101272.09
2019-03-06T05:28:31.773Z,101273.23
2019-03-06T05:31:38.640Z,101281.77
2019-03-06T05:34:45.144Z,101236.87
2019-03-06T05:38:10.560Z,101275.70
2019-03-06T05:41:17.104Z,101279.77
2019-03-06T05:44:23.466Z,101271.73
2019-03-06T05:47:30.262Z,101273.05
2019-03-06T05:50:37.173Z,101271.52
2019-03-06T05:53:44.022Z,101265.72
2019-03-06T05:56:52.741Z,101265.23
2019-03-06T05:59:59.350Z,101276.41
2019-03-06T06:03:05.815Z,101279.81
2019-03-06T06:06:12.333Z,101276.48
2019-03-06T06:09:19.183Z,101281.98
2019-03-06T06:12:25.636Z,101292.13
2019-03-06T06:15:32.782Z,101287.39
2019-03-06T06:18:39.257Z,101286.44
2019-03-06T06:21:54.640Z,101281.22
2019-03-06T06:25:00.970Z,101290.09
2019-03-06T06:28:07.783Z,101290.73
2019-03-06T06:31:14.095Z,101291.09
2019-03-06T06:34:23.195Z,101293.58
2019-03-06T06:37:29.699Z,101290.34
2019-03-06T06:40:36.129Z,101282.18
2019-03-06T06:43:42.826Z,101286.68
2019-03-06T06:46:49.167Z,101295.00
2019-03-06T06:49:55.720Z,101278.75
2019-03-06T06:53:58.542Z,101276.09
2019-03-06T06:57:55.169Z,101197.45
2019-03-06T07:02:15.470Z,101276.97
2019-03-06T07:05:43.731Z,101281.05
2019-03-06T07:09:00.193Z,101272.62
2019-03-06T07:12:15.160Z,101275.98
2019-03-06T07:15:43.534Z,101281.88
2019-03-06T07:19:15.310Z,101281.84
2019-03-06T07:22:47.520Z,101277.66
2019-03-06T07:26:21.070Z,101270.73
2019-03-06T07:29:43.059Z,101275.67
2019-03-06T07:32:56.600Z,101272.66
2019-03-06T07:36:10.841Z,101274.25
2019-03-06T07:39:24.353Z,101277.98
2019-03-06T07:42:42.937Z,101276.27
2019-03-06T07:46:20.408Z,101289.48
2019-03-06T07:49:33.440Z,101294.63
2019-03-06T07:52:56.709Z,101289.27
2019-03-06T07:56:11.700Z,101287.87
2019-03-06T07:59:18.254Z,101287.45
2019-03-06T08:02:39.845Z,101281.20
2019-03-06T08:05:47.526Z,101279.98
2019-03-06T08:08:53.773Z,101291.69
2019-03-06T08:12:34.546Z,101278.13
2019-03-06T08:15:52.014Z,101287.63
2019-03-06T08:19:23.289Z,101278.65
2019-03-06T08:22:51.685Z,101277.45
2019-03-06T08:25:58.098Z,101283.77
2019-03-06T08:29:04.570Z,101277.78
2019-03-06T08:32:31.155Z,101271.25
2019-03-06T08:35:37.525Z,101276.86
2019-03-06T08:38:45.213Z,101275.95
2019-03-06T08:41:51.623Z,101273.21
2019-03-06T08:44:58.014Z,101269.44
2019-03-06T08:48:22.811Z,101258.79
2019-03-06T08:51:44.847Z,101262.44
2019-03-06T08:55:13.320Z,101262.46
2019-03-06T08:58:32.059Z,101252.08
2019-03-06T09:02:00.187Z,101254.88
2019-03-06T09:05:08.465Z,101252.22
2019-03-06T09:08:38.583Z,101250.19
2019-03-06T09:12:13.546Z,101258.20
2019-03-06T09:15:37.742Z,101262.31
2019-03-06T09:18:59.465Z,101245.61
2019-03-06T09:22:27.910Z,101245.98
2019-03-06T09:25:53.328Z,101245.25
2019-03-06T09:29:09.645Z,101247.08
2019-03-06T09:32:36.462Z,101247.08
2019-03-06T09:36:01.769Z,101243.07
2019-03-06T09:39:30.486Z,101241.00
2019-03-06T09:43:04.955Z,101235.53
2019-03-06T09:46:30.360Z,101235.43
2019-03-06T09:49:53.910Z,101242.69
2019-03-06T09:53:11.057Z,101246.22
2019-03-06T09:56:25.574Z,101233.58
2019-03-06T09:59:37.217Z,101227.75
2019-03-06T10:03:05.745Z,101226.17
2019-03-06T10:06:36.438Z,101230.42
2019-03-06T10:09:59.138Z,101236.34
2019-03-06T10:13:30.286Z,101232.23
2019-03-06T10:16:54.536Z,101232.09
2019-03-06T10:20:07.291Z,101226.73
2019-03-06T10:23:13.612Z,101224.05
2019-03-06T10:26:20.019Z,101226.69
2019-03-06T10:29:26.447Z,101230.69
2019-03-06T10:32:33.194Z,101239.56
2019-03-06T10:35:39.557Z,101240.16
2019-03-06T10:38:46.397Z,101232.72
2019-03-06T10:41:53.333Z,101230.42
2019-03-06T10:45:00.407Z,101230.14
2019-03-06T10:48:06.932Z,101236.78
2019-03-06T10:51:13.384Z,101226.77
2019-03-06T10:54:19.719Z,101225.83
2019-03-06T10:57:27.014Z,101217.23
2019-03-06T11:00:40.381Z,101210.94
2019-03-06T11:04:15.233Z,101210.63
2019-03-06T11:07:21.818Z,101213.70
2019-03-06T11:10:29.612Z,101215.66
2019-03-06T11:13:37.112Z,101208.38
2019-03-06T11:16:44.710Z,101208.66
2019-03-06T11:19:51.439Z,101213.56
2019-03-06T11:22:59.069Z,101204.70
2019-03-06T11:26:08.772Z,101201.09
2019-03-06T11:29:15.259Z,101200.27
2019-03-06T11:32:21.728Z,101187.26
2019-03-06T11:35:28.498Z,101191.92
2019-03-06T11:38:34.905Z,101175.05
2019-03-06T11:41:41.368Z,101164.72
2019-03-06T11:44:47.789Z,101160.92
2019-03-06T11:47:54.281Z,101153.36
2019-03-06T11:51:00.653Z,101138.03
2019-03-06T11:54:07.053Z,101153.66
2019-03-06T11:57:13.661Z,101146.94
2019-03-06T12:00:26.750Z,101132.86
2019-03-06T12:03:33.799Z,101143.09
2019-03-06T12:06:40.761Z,101138.55
2019-03-06T12:09:47.194Z,101137.38
2019-03-06T12:12:53.683Z,101123.12
2019-03-06T12:16:00.040Z,101134.38
2019-03-06T12:19:06.466Z,101131.70
2019-03-06T12:22:12.945Z,101134.01
2019-03-06T12:25:20.695Z,101122.81
2019-03-06T12:28:27.194Z,101120.12
2019-03-06T12:31:33.679Z,101111.05
2019-03-06T12:34:40.359Z,101123.02
2019-03-06T12:37:47.349Z,101112.88
2019-03-06T12:40:53.745Z,101113.52
2019-03-06T12:44:10.199Z,101096.58
2019-03-06T12:47:10.941Z,101093.14
2019-03-06T12:50:19.974Z,101088.63
2019-03-06T12:53:26.436Z,101107.55
2019-03-06T12:56:32.882Z,101076.63
2019-03-06T12:59:39.436Z,101086.52
2019-03-06T13:02:46.116Z,101074.08
2019-03-06T13:05:53.216Z,101065.06
2019-03-06T13:09:00.101Z,101067.94
2019-03-06T13:12:06.740Z,101059.61
2019-03-06T13:15:15.622Z,101056.56
2019-03-06T13:18:21.998Z,101053.72
2019-03-06T13:21:28.660Z,101046.66
2019-03-06T13:24:35.122Z,101049.91
2019-03-06T13:27:42.934Z,101040.03
2019-03-06T13:30:49.407Z,101052.59
2019-03-06T13:34:26.886Z,101050.77
2019-03-06T13:37:33.385Z,101040.59
2019-03-06T13:40:40.101Z,101040.77
2019-03-06T13:43:46.569Z,101045.94
2019-03-06T13:46:52.972Z,101039.63
2019-03-06T13:49:59.409Z,101036.58
2019-03-06T13:53:05.949Z,101039.75
2019-03-06T13:56:12.317Z,101029.87
2019-03-06T13:59:18.680Z,101036.50
2019-03-06T14:02:25.025Z,101029.31
2019-03-06T14:05:31.683Z,101031.06
2019-03-06T14:08:38.555Z,101024.63
2019-03-06T14:11:45.630Z,101020.48
2019-03-06T14:14:52.022Z,101019.59
2019-03-06T14:18:00.738Z,101016.91
2019-03-06T14:21:07.221Z,101006.99
2019-03-06T14:24:13.578Z,101010.08
2019-03-06T14:27:21.211Z,101012.60
2019-03-06T14:30:27.687Z,101001.30
2019-03-06T14:33:33.971Z,100990.19
2019-03-06T14:36:40.516Z,100992.86
2019-03-06T14:39:46.946Z,100990.65
2019-03-06T14:42:53.965Z,100985.31
2019-03-06T14:46:00.383Z,100990.00
2019-03-06T14:49:06.766Z,100981.25
2019-03-06T14:52:14.053Z,100978.17
2019-03-06T14:55:20.837Z,100982.42
2019-03-06T14:58:27.310Z,100979.52
2019-03-06T15:01:33.747Z,100967.44
2019-03-06T15:04:40.555Z,100966.53
2019-03-06T15:07:47.015Z,100958.34
2019-03-06T15:10:53.662Z,100962.20
2019-03-06T15:14:00.315Z,100958.59
2019-03-06T15:17:06.714Z,100961.05
2019-03-06T15:20:15.955Z,100956.05
2019-03-06T15:23:22.620Z,100942.16
2019-03-06T15:26:28.993Z,100944.95
2019-03-06T15:29:35.417Z,100936.30
2019-03-06T15:32:42.234Z,100933.62
2019-03-06T15:35:48.575Z,100926.13
2019-03-06T15:38:55.175Z,100929.00
2019-03-06T15:42:12.576Z,100910.23
2019-03-06T15:45:23.509Z,100907.75
2019-03-06T15:48:30.007Z,100907.55
2019-03-06T15:51:36.754Z,100915.15
2019-03-06T15:54:43.212Z,100908.54
2019-03-06T15:57:49.663Z,100905.94
2019-03-06T16:00:56.069Z,100906.00
2019-03-06T16:04:02.435Z,100907.44
2019-03-06T16:07:09.469Z,100915.49
2019-03-06T16:10:16.808Z,100917.55
2019-03-06T16:13:23.994Z,100915.16
2019-03-06T16:16:30.620Z,100907.44
2019-03-06T16:19:37.020Z,100916.17
2019-03-06T16:22:43.527Z,100918.23
2019-03-06T16:25:49.871Z,100910.72
2019-03-06T16:28:56.549Z,100911.11
2019-03-06T16:32:02.962Z,100919.38
2019-03-06T16:35:11.965Z,100918.56
2019-03-06T16:38:18.413Z,100915.43
2019-03-06T16:41:24.804Z,100912.86
2019-03-06T16:44:32.910Z,100925.01
2019-03-06T16:47:40.489Z,100931.19
2019-03-06T16:50:46.853Z,100930.77
2019-03-06T16:53:53.417Z,100927.61
2019-03-06T16:56:59.757Z,100927.12
2019-03-06T17:00:18.379Z,100916.22
2019-03-06T17:03:28.533Z,100922.70
2019-03-06T17:06:37.414Z,100917.84
2019-03-06T17:09:53.771Z,100917.84
2019-03-06T17:13:01.980Z,100916.48
2019-03-06T17:16:09.901Z,100915.88
2019-03-06T17:19:18.181Z,100917.91
2019-03-06T17:22:25.059Z,100918.31
2019-03-06T17:25:33.067Z,100913.62
2019-03-06T17:28:39.353Z,100920.80
2019-03-06T17:31:46.017Z,100922.70
2019-03-06T17:34:52.754Z,100921.19
2019-03-06T17:37:59.863Z,100925.16
2019-03-06T17:41:06.962Z,100917.53
2019-03-06T17:44:14.720Z,100921.99
2019-03-06T17:47:21.151Z,100932.69
2019-03-06T17:50:27.675Z,100920.48
2019-03-06T17:53:34.363Z,100914.28
2019-03-06T17:56:40.971Z,100920.42
2019-03-06T17:59:48.049Z,100915.25
2019-03-06T18:02:54.612Z,100919.83
2019-03-06T18:06:01.696Z,100910.25
2019-03-06T18:09:08.343Z,100911.39
2019-03-06T18:12:16.798Z,100906.00
2019-03-06T18:15:23.189Z,100897.64
2019-03-06T18:18:29.778Z,100901.74
2019-03-06T18:21:37.354Z,100898.03
2019-03-06T18:24:43.778Z,100894.80
2019-03-06T18:27:50.656Z,100901.61
2019-03-06T18:30:57.085Z,100897.94
2019-03-06T18:34:05.045Z,100889.05
2019-03-06T18:37:11.891Z,100890.28
2019-03-06T18:40:18.839Z,100889.78
2019-03-06T18:43:26.812Z,100890.98
2019-03-06T18:46:33.276Z,100892.13
2019-03-06T18:49:39.784Z,100891.42
2019-03-06T18:52:46.513Z,100895.28
2019-03-06T18:55:55.696Z,100886.62
2019-03-06T18:59:02.311Z,100884.13
2019-03-06T19:02:09.351Z,100883.88
2019-03-06T19:05:16.218Z,100890.23
2019-03-06T19:08:31.120Z,100889.97
2019-03-06T19:11:31.818Z,100879.80
2019-03-06T19:14:39.243Z,100885.98
2019-03-06T19:17:45.782Z,100875.78
2019-03-06T19:20:52.339Z,100868.69
2019-03-06T19:23:58.893Z,100867.52
2019-03-06T19:27:07.095Z,100879.13
2019-03-06T19:30:20.804Z,100869.75
2019-03-06T19:33:29.047Z,100858.41
2019-03-06T19:36:35.344Z,100857.66
2019-03-06T19:39:41.732Z,100851.50
2019-03-06T19:42:48.518Z,100860.48
2019-03-06T19:45:54.981Z,100850.41
2019-03-06T19:49:01.344Z,100846.00
2019-03-06T19:52:07.653Z,100844.17
2019-03-06T19:55:16.843Z,100840.01
2019-03-06T19:58:23.267Z,100839.53
2019-03-06T20:01:29.841Z,100829.27
2019-03-06T20:04:36.370Z,100833.03
2019-03-06T20:07:42.810Z,100829.33
2019-03-06T20:10:49.506Z,100815.22
2019-03-06T20:13:55.860Z,100816.25
2019-03-06T20:17:02.258Z,100809.58
2019-03-06T20:20:10.348Z,100812.39
2019-03-06T20:23:16.939Z,100802.30
2019-03-06T20:26:23.642Z,100808.86
2019-03-06T20:29:30.018Z,100806.22
2019-03-06T20:32:36.440Z,100801.14
2019-03-06T20:35:42.779Z,100795.59
2019-03-06T20:38:49.225Z,100791.47
2019-03-06T20:41:55.513Z,100780.00
2019-03-06T20:45:01.877Z,100783.72
2019-03-06T20:48:08.327Z,100790.08
2019-03-06T20:51:14.968Z,100784.39
2019-03-06T20:54:21.432Z,100780.00
2019-03-06T20:57:29.075Z,100794.83
2019-03-06T21:00:35.435Z,100780.71
2019-03-06T21:03:41.994Z,100776.50
2019-03-06T21:06:49.844Z,100780.04
2019-03-06T21:09:56.621Z,100775.34
2019-03-06T21:13:02.918Z,100775.34
2019-03-06T21:16:11.720Z,100772.65
2019-03-06T21:19:19.010Z,100765.25
2019-03-06T21:22:25.624Z,100763.09
2019-03-06T21:25:32.694Z,100760.86
2019-03-06T21:28:39.429Z,100764.93
2019-03-06T21:31:45.695Z,100756.20
2019-03-06T21:34:52.363Z,100761.25
2019-03-06T21:37:58.747Z,100754.84
2019-03-06T21:41:06.915Z,100759.70
2019-03-06T21:44:13.526Z,100758.25
2019-03-06T21:47:21.407Z,100754.21
2019-03-06T21:50:27.927Z,100749.16
2019-03-06T21:53:35.205Z,100754.21
2019-03-06T21:56:43.737Z,100743.45
2019-03-06T21:59:50.839Z,100744.44
2019-03-06T22:03:09.445Z,100742.78
2019-03-06T22:06:17.729Z,100736.73
2019-03-06T22:09:25.555Z,100730.34
2019-03-06T22:12:34.808Z,100729.33
2019-03-06T22:15:41.627Z,100729.33
2019-03-06T22:18:47.934Z,100718.57
2019-03-06T22:21:54.877Z,100713.72
2019-03-06T22:25:01.315Z,100709.67
2019-03-06T22:28:08.646Z,100703.12
2019-03-06T22:31:15.292Z,100700.09
2019-03-06T22:34:21.615Z,100695.91
2019-03-06T22:37:28.255Z,100696.39
2019-03-06T22:40:34.597Z,100684.64
2019-03-06T22:43:40.906Z,100688.16
2019-03-06T22:46:48.224Z,100678.09
2019-03-06T22:49:54.804Z,100679.94
2019-03-06T22:53:01.120Z,100681.27
2019-03-06T22:56:07.589Z,100676.22
2019-03-06T22:59:13.994Z,100672.86
2019-03-06T23:02:21.861Z,100663.12
2019-03-06T23:05:28.342Z,100660.41
2019-03-06T23:08:35.279Z,100649.99
2019-03-06T23:11:41.773Z,100648.64
2019-03-06T23:14:48.201Z,100637.57
2019-03-06T23:17:54.519Z,100643.95
2019-03-06T23:21:01.735Z,100633.17
2019-03-06T23:24:08.070Z,100621.74
2019-03-06T23:27:14.575Z,100602.56
2019-03-06T23:30:21.536Z,100602.56
2019-03-06T23:33:28.359Z,100604.25
2019-03-06T23:36:34.688Z,100594.33
2019-03-06T23:39:41.577Z,100595.83
2019-03-06T23:42:48.270Z,100590.63
2019-03-06T23:45:55.756Z,100580.70
2019-03-06T23:49:02.086Z,100575.52
2019-03-06T23:52:18.947Z,100573.64
2019-03-06T23:55:25.957Z,100565.56
2019-03-06T23:58:32.523Z,100548.77
